ELY237 LLBG-EHAM
Flight info
| Callsign | ELY237 |
|---|---|
| Flight time | 4h 27m |
| Altitude | 32000 |
| Route | SUVAS N128 OTHON DCT VAXOS UN128 RDS UL609 MES DCT DISOR DCT LONTA UL608 DOLEV DCT IRDIV DCT PODET DCT SIMBA DCT GASKA DCT MASEK DCT MAPOX DCT BIGGE DCT AMSAN T281 NORKU |
| Aircraft | B738/M-SDE2E3FGHIRWXY/LB1 |
Departure
| Time | 2026-05-05 15:49 |
|---|---|
| Airport | Ben Gurion International Airport (LLBG) |
Arrival
| Time | 2026-05-05 20:17 |
|---|---|
| Airport | Amsterdam Airport Schiphol (EHAM) |
| Time | Latitude | Longitude | Altitude | Speed | Heading |
|---|---|---|---|---|---|
| 2026-05-05 15:22 | 32.00611 | 34.87091 | 112 ft | 0 kts | 146° |
| 2026-05-05 15:37 | 32.00629 | 34.87076 | 111 ft | 4 kts | 137° |
| 2026-05-05 15:37 | 32.00646 | 34.87053 | 110 ft | 4 kts | 118° |
| 2026-05-05 15:38 | 32.00654 | 34.87025 | 111 ft | 4 kts | 76° |
| 2026-05-05 15:38 | 32.00647 | 34.87009 | 111 ft | 0 kts | 33° |
| 2026-05-05 15:42 | 32.00648 | 34.87010 | 111 ft | 1 kts | 33° |
| 2026-05-05 15:42 | 32.00668 | 34.87025 | 115 ft | 6 kts | 32° |
| 2026-05-05 15:42 | 32.00713 | 34.87058 | 113 ft | 10 kts | 31° |
| 2026-05-05 15:42 | 32.00781 | 34.87107 | 114 ft | 13 kts | 32° |
| 2026-05-05 15:43 | 32.00871 | 34.87169 | 112 ft | 17 kts | 32° |
| 2026-05-05 15:43 | 32.00905 | 34.87223 | 115 ft | 5 kts | 91° |
| 2026-05-05 15:43 | 32.00889 | 34.87273 | 114 ft | 8 kts | 117° |
| 2026-05-05 15:43 | 32.00852 | 34.87344 | 113 ft | 12 kts | 122° |
| 2026-05-05 15:44 | 32.00802 | 34.87439 | 115 ft | 16 kts | 122° |
| 2026-05-05 15:44 | 32.00738 | 34.87563 | 116 ft | 19 kts | 121° |
| 2026-05-05 15:44 | 32.00665 | 34.87705 | 118 ft | 19 kts | 121° |
| 2026-05-05 15:44 | 32.00593 | 34.87842 | 115 ft | 17 kts | 122° |
| 2026-05-05 15:45 | 32.00609 | 34.87933 | 115 ft | 14 kts | 33° |
| 2026-05-05 15:45 | 32.00703 | 34.87998 | 118 ft | 17 kts | 31° |
| 2026-05-05 15:45 | 32.00812 | 34.88076 | 118 ft | 20 kts | 31° |
| 2026-05-05 15:45 | 32.00935 | 34.88167 | 118 ft | 22 kts | 31° |
| 2026-05-05 15:46 | 32.01072 | 34.88263 | 117 ft | 23 kts | 31° |
| 2026-05-05 15:46 | 32.01207 | 34.88360 | 122 ft | 22 kts | 33° |
| 2026-05-05 15:46 | 32.01330 | 34.88476 | 119 ft | 24 kts | 46° |
| 2026-05-05 15:46 | 32.01424 | 34.88619 | 123 ft | 19 kts | 57° |
| 2026-05-05 15:47 | 32.01479 | 34.88762 | 122 ft | 19 kts | 71° |
| 2026-05-05 15:47 | 32.01500 | 34.88863 | 127 ft | 19 kts | 79° |
| 2026-05-05 15:47 | 32.01530 | 34.89063 | 128 ft | 18 kts | 80° |
| 2026-05-05 15:47 | 32.01603 | 34.89157 | 129 ft | 18 kts | 351° |
| 2026-05-05 15:48 | 32.01716 | 34.89134 | 127 ft | 11 kts | 354° |
| 2026-05-05 15:48 | 32.01748 | 34.89118 | 127 ft | 3 kts | 290° |
| 2026-05-05 15:48 | 32.01746 | 34.89095 | 123 ft | 3 kts | 257° |
| 2026-05-05 15:48 | 32.01742 | 34.89073 | 124 ft | 3 kts | 259° |
| 2026-05-05 15:49 | 32.01719 | 34.88914 | 124 ft | 50 kts | 260° |
| 2026-05-05 15:49 | 32.01617 | 34.88250 | 119 ft | 113 kts | 259° |
| 2026-05-05 15:49 | 32.01473 | 34.87129 | 183 ft | 158 kts | 265° |
| 2026-05-05 15:49 | 32.01276 | 34.85821 | 800 ft | 162 kts | 261° |
| 2026-05-05 15:50 | 32.01047 | 34.84528 | 1563 ft | 167 kts | 257° |
| 2026-05-05 15:50 | 32.00746 | 34.83104 | 1979 ft | 188 kts | 258° |
| 2026-05-05 15:50 | 32.00419 | 34.81576 | 2434 ft | 197 kts | 258° |
| 2026-05-05 15:50 | 32.00067 | 34.79917 | 2592 ft | 221 kts | 257° |
| 2026-05-05 15:51 | 31.99675 | 34.78067 | 2921 ft | 241 kts | 257° |
| 2026-05-05 15:51 | 31.99273 | 34.76129 | 3600 ft | 246 kts | 261° |
| 2026-05-05 15:51 | 31.99374 | 34.74137 | 4465 ft | 243 kts | 284° |
| 2026-05-05 15:51 | 31.99917 | 34.72229 | 5241 ft | 247 kts | 289° |
| 2026-05-05 15:52 | 32.00493 | 34.70343 | 5992 ft | 248 kts | 286° |
| 2026-05-05 15:52 | 32.00968 | 34.68375 | 6707 ft | 251 kts | 284° |
| 2026-05-05 15:52 | 32.01423 | 34.66374 | 7388 ft | 255 kts | 284° |
| 2026-05-05 15:52 | 32.01885 | 34.64336 | 8026 ft | 261 kts | 285° |
| 2026-05-05 15:53 | 32.02360 | 34.62253 | 8700 ft | 264 kts | 285° |
| 2026-05-05 15:53 | 32.02844 | 34.60146 | 9389 ft | 267 kts | 285° |
| 2026-05-05 15:53 | 32.03333 | 34.58029 | 10121 ft | 269 kts | 285° |
| 2026-05-05 15:53 | 32.03838 | 34.55848 | 10438 ft | 286 kts | 285° |
| 2026-05-05 15:54 | 32.04383 | 34.53500 | 10590 ft | 307 kts | 285° |
| 2026-05-05 15:54 | 32.04965 | 34.50997 | 10738 ft | 327 kts | 285° |
| 2026-05-05 15:54 | 32.05584 | 34.48336 | 10888 ft | 345 kts | 285° |
| 2026-05-05 15:54 | 32.06235 | 34.45539 | 11018 ft | 363 kts | 286° |
| 2026-05-05 15:55 | 32.06915 | 34.42613 | 11284 ft | 374 kts | 286° |
| 2026-05-05 15:55 | 32.07608 | 34.39631 | 11828 ft | 377 kts | 285° |
| 2026-05-05 15:55 | 32.08292 | 34.36682 | 12436 ft | 377 kts | 285° |
| 2026-05-05 15:55 | 32.08984 | 34.33694 | 13017 ft | 379 kts | 285° |
| 2026-05-05 15:56 | 32.09681 | 34.30683 | 13532 ft | 381 kts | 285° |
| 2026-05-05 15:56 | 32.10381 | 34.27660 | 14036 ft | 384 kts | 285° |
| 2026-05-05 15:56 | 32.11085 | 34.24610 | 14481 ft | 386 kts | 285° |
| 2026-05-05 15:56 | 32.11794 | 34.21537 | 14916 ft | 389 kts | 285° |
| 2026-05-05 15:57 | 32.12508 | 34.18442 | 15354 ft | 391 kts | 285° |
| 2026-05-05 15:57 | 32.13224 | 34.15330 | 15788 ft | 394 kts | 285° |
| 2026-05-05 15:57 | 32.13944 | 34.12199 | 16222 ft | 396 kts | 285° |
| 2026-05-05 15:57 | 32.14667 | 34.09051 | 16656 ft | 399 kts | 285° |
| 2026-05-05 15:58 | 32.15384 | 34.05928 | 17070 ft | 401 kts | 285° |
| 2026-05-05 15:58 | 32.16116 | 34.02735 | 17476 ft | 404 kts | 285° |
| 2026-05-05 15:58 | 32.17063 | 33.99598 | 17862 ft | 407 kts | 293° |
| 2026-05-05 15:58 | 32.18416 | 33.96641 | 18262 ft | 411 kts | 302° |
| 2026-05-05 15:59 | 32.20079 | 33.93881 | 18618 ft | 414 kts | 304° |
| 2026-05-05 15:59 | 32.21776 | 33.91114 | 18951 ft | 416 kts | 304° |
| 2026-05-05 15:59 | 32.23456 | 33.88368 | 19304 ft | 418 kts | 304° |
| 2026-05-05 15:59 | 32.25159 | 33.85572 | 19662 ft | 420 kts | 303° |
| 2026-05-05 16:00 | 32.26863 | 33.82760 | 20032 ft | 422 kts | 303° |
| 2026-05-05 16:00 | 32.28565 | 33.79940 | 20439 ft | 422 kts | 303° |
| 2026-05-05 16:00 | 32.30278 | 33.77095 | 20779 ft | 425 kts | 303° |
| 2026-05-05 16:00 | 32.31995 | 33.74238 | 21084 ft | 427 kts | 303° |
| 2026-05-05 16:01 | 32.33718 | 33.71365 | 21411 ft | 430 kts | 303° |
| 2026-05-05 16:01 | 32.35451 | 33.68473 | 21725 ft | 432 kts | 303° |
| 2026-05-05 16:01 | 32.37197 | 33.65558 | 21967 ft | 436 kts | 303° |
| 2026-05-05 16:01 | 32.38955 | 33.62620 | 22249 ft | 438 kts | 303° |
| 2026-05-05 16:02 | 32.40724 | 33.59663 | 22569 ft | 440 kts | 303° |
| 2026-05-05 16:02 | 32.42493 | 33.56703 | 22875 ft | 441 kts | 303° |
| 2026-05-05 16:02 | 32.44271 | 33.53727 | 23158 ft | 444 kts | 303° |
| 2026-05-05 16:02 | 32.46056 | 33.50734 | 23435 ft | 446 kts | 303° |
| 2026-05-05 16:03 | 32.47846 | 33.47733 | 23686 ft | 448 kts | 303° |
| 2026-05-05 16:03 | 32.49621 | 33.44753 | 23947 ft | 448 kts | 303° |
| 2026-05-05 16:03 | 32.51421 | 33.41730 | 24260 ft | 448 kts | 302° |
| 2026-05-05 16:03 | 32.53217 | 33.38712 | 24567 ft | 447 kts | 302° |
| 2026-05-05 16:04 | 32.55012 | 33.35692 | 24847 ft | 448 kts | 302° |
| 2026-05-05 16:04 | 32.56804 | 33.32674 | 25106 ft | 448 kts | 302° |
| 2026-05-05 16:04 | 32.58600 | 33.29647 | 25368 ft | 449 kts | 302° |
| 2026-05-05 16:04 | 32.60392 | 33.26625 | 25714 ft | 447 kts | 302° |
| 2026-05-05 16:05 | 32.61575 | 33.24631 | 26009 ft | 444 kts | 302° |
| 2026-05-05 16:05 | 32.63344 | 33.21646 | 26499 ft | 439 kts | 302° |
| 2026-05-05 16:05 | 32.65087 | 33.18701 | 26967 ft | 435 kts | 302° |
| 2026-05-05 16:05 | 32.67379 | 33.14825 | 27506 ft | 431 kts | 301° |
| 2026-05-05 16:06 | 32.68541 | 33.12856 | 27713 ft | 431 kts | 301° |
| 2026-05-05 16:06 | 32.70816 | 33.09001 | 28189 ft | 429 kts | 301° |
| 2026-05-05 16:06 | 32.71969 | 33.07046 | 28519 ft | 426 kts | 301° |
| 2026-05-05 16:06 | 32.73673 | 33.04153 | 28781 ft | 428 kts | 301° |
| 2026-05-05 16:07 | 32.75362 | 33.01284 | 28934 ft | 431 kts | 301° |
| 2026-05-05 16:07 | 32.77077 | 32.98368 | 29269 ft | 429 kts | 301° |
| 2026-05-05 16:07 | 32.78777 | 32.95478 | 29749 ft | 425 kts | 301° |
| 2026-05-05 16:07 | 32.80463 | 32.92610 | 30210 ft | 421 kts | 301° |
| 2026-05-05 16:08 | 32.82138 | 32.89760 | 30508 ft | 419 kts | 301° |
| 2026-05-05 16:08 | 32.83807 | 32.86914 | 30719 ft | 420 kts | 301° |
| 2026-05-05 16:08 | 32.85480 | 32.84058 | 30932 ft | 420 kts | 301° |
| 2026-05-05 16:08 | 32.87148 | 32.81210 | 31217 ft | 419 kts | 301° |
| 2026-05-05 16:09 | 32.88813 | 32.78366 | 31518 ft | 417 kts | 301° |
| 2026-05-05 16:09 | 32.90469 | 32.75534 | 31776 ft | 416 kts | 301° |
| 2026-05-05 16:09 | 32.92120 | 32.72708 | 32001 ft | 416 kts | 301° |
| 2026-05-05 16:10 | 32.95443 | 32.67013 | 32021 ft | 418 kts | 301° |
| 2026-05-05 16:10 | 32.98748 | 32.61344 | 32037 ft | 415 kts | 301° |
| 2026-05-05 16:11 | 33.02009 | 32.55741 | 32024 ft | 413 kts | 301° |
| 2026-05-05 16:12 | 33.08547 | 32.44481 | 32027 ft | 413 kts | 301° |
| 2026-05-05 16:13 | 33.16750 | 32.30303 | 32027 ft | 417 kts | 302° |
| 2026-05-05 16:13 | 33.20054 | 32.24577 | 32031 ft | 420 kts | 302° |
| 2026-05-05 16:14 | 33.26689 | 32.13054 | 32021 ft | 424 kts | 302° |
| 2026-05-05 16:15 | 33.33371 | 32.01411 | 32018 ft | 425 kts | 302° |
| 2026-05-05 16:16 | 33.40058 | 31.89723 | 32030 ft | 425 kts | 302° |
| 2026-05-05 16:17 | 33.45062 | 31.80952 | 32027 ft | 425 kts | 302° |
| 2026-05-05 16:18 | 33.50054 | 31.72189 | 32025 ft | 424 kts | 302° |
| 2026-05-05 16:19 | 33.55031 | 31.63436 | 32030 ft | 423 kts | 302° |
| 2026-05-05 16:19 | 33.59975 | 31.54717 | 32026 ft | 423 kts | 302° |
| 2026-05-05 16:20 | 33.66578 | 31.43040 | 32033 ft | 423 kts | 302° |
| 2026-05-05 16:22 | 33.74859 | 31.28342 | 32025 ft | 426 kts | 302° |
| 2026-05-05 16:23 | 33.81475 | 31.16556 | 32022 ft | 426 kts | 303° |
| 2026-05-05 16:23 | 33.86447 | 31.07674 | 32023 ft | 426 kts | 303° |
| 2026-05-05 16:24 | 33.89748 | 31.01763 | 32024 ft | 425 kts | 303° |
| 2026-05-05 16:24 | 33.93571 | 30.96331 | 32030 ft | 428 kts | 316° |
| 2026-05-05 16:25 | 33.95803 | 30.93964 | 32022 ft | 428 kts | 316° |
| 2026-05-05 16:25 | 34.02482 | 30.86810 | 32022 ft | 428 kts | 316° |
| 2026-05-05 16:26 | 34.11333 | 30.77188 | 32024 ft | 428 kts | 316° |
| 2026-05-05 16:27 | 34.15729 | 30.72389 | 32025 ft | 428 kts | 316° |
| 2026-05-05 16:27 | 34.20146 | 30.67559 | 32025 ft | 429 kts | 316° |
| 2026-05-05 16:28 | 34.24568 | 30.62718 | 32025 ft | 429 kts | 316° |
| 2026-05-05 16:28 | 34.28990 | 30.57869 | 32022 ft | 429 kts | 316° |
| 2026-05-05 16:29 | 34.33409 | 30.53017 | 32025 ft | 429 kts | 316° |
| 2026-05-05 16:29 | 34.37830 | 30.48156 | 32022 ft | 429 kts | 315° |
| 2026-05-05 16:30 | 34.42222 | 30.43318 | 32022 ft | 429 kts | 315° |
| 2026-05-05 16:30 | 34.46632 | 30.38454 | 32017 ft | 428 kts | 316° |
| 2026-05-05 16:31 | 34.51036 | 30.33590 | 32017 ft | 428 kts | 316° |
| 2026-05-05 16:31 | 34.55433 | 30.28725 | 32019 ft | 427 kts | 316° |
| 2026-05-05 16:32 | 34.59815 | 30.23870 | 32019 ft | 426 kts | 315° |
| 2026-05-05 16:32 | 34.64194 | 30.19012 | 32019 ft | 426 kts | 315° |
| 2026-05-05 16:33 | 34.68562 | 30.14158 | 32031 ft | 426 kts | 315° |
| 2026-05-05 16:33 | 34.72934 | 30.09292 | 32021 ft | 425 kts | 315° |
| 2026-05-05 16:34 | 34.77280 | 30.04449 | 32016 ft | 425 kts | 315° |
| 2026-05-05 16:34 | 34.81635 | 29.99588 | 32013 ft | 424 kts | 315° |
| 2026-05-05 16:35 | 34.85981 | 29.94729 | 32016 ft | 424 kts | 315° |
| 2026-05-05 16:35 | 34.90318 | 29.89873 | 32009 ft | 423 kts | 315° |
| 2026-05-05 16:36 | 34.94655 | 29.85010 | 32010 ft | 423 kts | 315° |
| 2026-05-05 16:36 | 34.98985 | 29.80148 | 32006 ft | 423 kts | 316° |
| 2026-05-05 16:37 | 35.03312 | 29.75281 | 32016 ft | 423 kts | 315° |
| 2026-05-05 16:37 | 35.07614 | 29.70435 | 32005 ft | 423 kts | 315° |
| 2026-05-05 16:38 | 35.11937 | 29.65559 | 32006 ft | 423 kts | 315° |
| 2026-05-05 16:38 | 35.16261 | 29.60674 | 32009 ft | 423 kts | 315° |
| 2026-05-05 16:39 | 35.20579 | 29.55789 | 32002 ft | 423 kts | 315° |
| 2026-05-05 16:39 | 35.24890 | 29.50902 | 31996 ft | 422 kts | 315° |
| 2026-05-05 16:40 | 35.29200 | 29.46012 | 32001 ft | 422 kts | 315° |
| 2026-05-05 16:40 | 35.33483 | 29.41143 | 32002 ft | 422 kts | 315° |
| 2026-05-05 16:41 | 35.37788 | 29.36243 | 32002 ft | 422 kts | 315° |
| 2026-05-05 16:41 | 35.42096 | 29.31331 | 32000 ft | 423 kts | 315° |
| 2026-05-05 16:42 | 35.46400 | 29.26417 | 31995 ft | 423 kts | 315° |
| 2026-05-05 16:42 | 35.50703 | 29.21496 | 31995 ft | 422 kts | 316° |
| 2026-05-05 16:43 | 35.55000 | 29.16573 | 31990 ft | 422 kts | 315° |
| 2026-05-05 16:43 | 35.59262 | 29.11685 | 31989 ft | 421 kts | 315° |
| 2026-05-05 16:44 | 35.63544 | 29.06765 | 32009 ft | 421 kts | 315° |
| 2026-05-05 16:44 | 35.67825 | 29.01840 | 31993 ft | 421 kts | 315° |
| 2026-05-05 16:45 | 35.72096 | 28.96917 | 31988 ft | 421 kts | 315° |
| 2026-05-05 16:45 | 35.76358 | 28.91998 | 31989 ft | 420 kts | 316° |
| 2026-05-05 16:46 | 35.80620 | 28.87071 | 31985 ft | 419 kts | 316° |
| 2026-05-05 16:46 | 35.84874 | 28.82146 | 31986 ft | 419 kts | 316° |
| 2026-05-05 16:47 | 35.89097 | 28.77249 | 31983 ft | 419 kts | 316° |
| 2026-05-05 16:47 | 35.93338 | 28.72325 | 31983 ft | 418 kts | 316° |
| 2026-05-05 16:48 | 35.97576 | 28.67395 | 31983 ft | 418 kts | 316° |
| 2026-05-05 16:48 | 36.01810 | 28.62462 | 31982 ft | 418 kts | 316° |
| 2026-05-05 16:49 | 36.06038 | 28.57529 | 31977 ft | 418 kts | 316° |
| 2026-05-05 16:49 | 36.10236 | 28.52623 | 31980 ft | 417 kts | 316° |
| 2026-05-05 16:50 | 36.14456 | 28.47685 | 31981 ft | 417 kts | 316° |
| 2026-05-05 16:50 | 36.18672 | 28.42743 | 31986 ft | 417 kts | 316° |
| 2026-05-05 16:51 | 36.22170 | 28.38636 | 31981 ft | 417 kts | 316° |
| 2026-05-05 16:51 | 36.26378 | 28.33690 | 31998 ft | 416 kts | 316° |
| 2026-05-05 16:52 | 36.30578 | 28.28744 | 31992 ft | 416 kts | 316° |
| 2026-05-05 16:52 | 36.34773 | 28.23798 | 31986 ft | 416 kts | 316° |
| 2026-05-05 16:53 | 36.38968 | 28.18843 | 31992 ft | 416 kts | 316° |
| 2026-05-05 16:53 | 36.43159 | 28.13886 | 31991 ft | 416 kts | 316° |
| 2026-05-05 16:54 | 36.47351 | 28.08919 | 31995 ft | 416 kts | 316° |
| 2026-05-05 16:54 | 36.51541 | 28.03947 | 31989 ft | 415 kts | 316° |
| 2026-05-05 16:55 | 36.55703 | 27.99000 | 31989 ft | 414 kts | 316° |
| 2026-05-05 16:55 | 36.59860 | 27.94052 | 32004 ft | 413 kts | 316° |
| 2026-05-05 16:56 | 36.63987 | 27.89131 | 31996 ft | 413 kts | 316° |
| 2026-05-05 16:56 | 36.68131 | 27.84183 | 31997 ft | 412 kts | 316° |
| 2026-05-05 16:57 | 36.72269 | 27.79235 | 32002 ft | 412 kts | 316° |
| 2026-05-05 16:57 | 36.76403 | 27.74282 | 32003 ft | 412 kts | 316° |
| 2026-05-05 16:58 | 36.80532 | 27.69328 | 32010 ft | 412 kts | 316° |
| 2026-05-05 16:58 | 36.84666 | 27.64361 | 32009 ft | 412 kts | 316° |
| 2026-05-05 16:59 | 36.88796 | 27.59390 | 32022 ft | 412 kts | 316° |
| 2026-05-05 16:59 | 36.92930 | 27.54407 | 32012 ft | 413 kts | 316° |
| 2026-05-05 17:00 | 36.97064 | 27.49414 | 32017 ft | 413 kts | 316° |
| 2026-05-05 17:00 | 37.01170 | 27.44450 | 32019 ft | 413 kts | 316° |
| 2026-05-05 17:01 | 37.05305 | 27.39442 | 32018 ft | 413 kts | 316° |
| 2026-05-05 17:01 | 37.09429 | 27.34439 | 32021 ft | 412 kts | 316° |
| 2026-05-05 17:02 | 37.13548 | 27.29434 | 32017 ft | 413 kts | 316° |
| 2026-05-05 17:02 | 37.17664 | 27.24424 | 32022 ft | 412 kts | 316° |
| 2026-05-05 17:03 | 37.21778 | 27.19409 | 32033 ft | 412 kts | 316° |
| 2026-05-05 17:03 | 37.25886 | 27.14393 | 32017 ft | 412 kts | 316° |
| 2026-05-05 17:04 | 37.29984 | 27.09382 | 32023 ft | 411 kts | 316° |
| 2026-05-05 17:04 | 37.34082 | 27.04362 | 32023 ft | 411 kts | 316° |
| 2026-05-05 17:05 | 37.38148 | 26.99374 | 32025 ft | 410 kts | 316° |
| 2026-05-05 17:05 | 37.42231 | 26.94357 | 32025 ft | 410 kts | 316° |
| 2026-05-05 17:06 | 37.46312 | 26.89334 | 32024 ft | 410 kts | 316° |
| 2026-05-05 17:06 | 37.50387 | 26.84310 | 32027 ft | 409 kts | 316° |
| 2026-05-05 17:07 | 37.54453 | 26.79290 | 32024 ft | 409 kts | 316° |
| 2026-05-05 17:07 | 37.58513 | 26.74269 | 32025 ft | 409 kts | 316° |
| 2026-05-05 17:08 | 37.62540 | 26.69280 | 32026 ft | 408 kts | 316° |
| 2026-05-05 17:08 | 37.66592 | 26.64252 | 32028 ft | 408 kts | 316° |
| 2026-05-05 17:09 | 37.70649 | 26.59211 | 32036 ft | 408 kts | 316° |
| 2026-05-05 17:09 | 37.74693 | 26.54176 | 32027 ft | 408 kts | 316° |
| 2026-05-05 17:10 | 37.78733 | 26.49139 | 32037 ft | 407 kts | 316° |
| 2026-05-05 17:10 | 37.82768 | 26.44100 | 32044 ft | 407 kts | 316° |
| 2026-05-05 17:11 | 37.86803 | 26.39053 | 32038 ft | 407 kts | 316° |
| 2026-05-05 17:11 | 37.90832 | 26.34005 | 32046 ft | 407 kts | 316° |
| 2026-05-05 17:12 | 37.94835 | 26.28981 | 32040 ft | 407 kts | 316° |
| 2026-05-05 17:12 | 37.98860 | 26.23921 | 32033 ft | 407 kts | 316° |
| 2026-05-05 17:13 | 38.02886 | 26.18851 | 32042 ft | 407 kts | 316° |
| 2026-05-05 17:13 | 38.06902 | 26.13787 | 32043 ft | 407 kts | 316° |
| 2026-05-05 17:14 | 38.10923 | 26.08707 | 32053 ft | 408 kts | 316° |
| 2026-05-05 17:14 | 38.14951 | 26.03610 | 32053 ft | 409 kts | 316° |
| 2026-05-05 17:15 | 38.18976 | 25.98508 | 32044 ft | 409 kts | 316° |
| 2026-05-05 17:15 | 38.23010 | 25.93388 | 32039 ft | 409 kts | 316° |
| 2026-05-05 17:16 | 38.27161 | 25.88500 | 32054 ft | 408 kts | 321° |
| 2026-05-05 17:16 | 38.31649 | 25.84060 | 32044 ft | 408 kts | 322° |
| 2026-05-05 17:17 | 38.36154 | 25.79655 | 32048 ft | 408 kts | 322° |
| 2026-05-05 17:17 | 38.40640 | 25.75221 | 32062 ft | 408 kts | 322° |
| 2026-05-05 17:18 | 38.45116 | 25.70760 | 32052 ft | 408 kts | 322° |
| 2026-05-05 17:18 | 38.49584 | 25.66290 | 32051 ft | 408 kts | 322° |
| 2026-05-05 17:19 | 38.54048 | 25.61814 | 32040 ft | 407 kts | 322° |
| 2026-05-05 17:19 | 38.58498 | 25.57345 | 32047 ft | 407 kts | 322° |
| 2026-05-05 17:20 | 38.62943 | 25.52873 | 32041 ft | 407 kts | 322° |
| 2026-05-05 17:20 | 38.67369 | 25.48415 | 32060 ft | 406 kts | 322° |
| 2026-05-05 17:21 | 38.71812 | 25.43931 | 32055 ft | 407 kts | 322° |
| 2026-05-05 17:22 | 38.78482 | 25.37188 | 32052 ft | 407 kts | 322° |
| 2026-05-05 17:22 | 38.82923 | 25.32688 | 32033 ft | 407 kts | 322° |
| 2026-05-05 17:23 | 38.87362 | 25.28183 | 32043 ft | 406 kts | 322° |
| 2026-05-05 17:23 | 38.91794 | 25.23677 | 32049 ft | 406 kts | 322° |
| 2026-05-05 17:24 | 38.96222 | 25.19169 | 32055 ft | 406 kts | 322° |
| 2026-05-05 17:24 | 39.00622 | 25.14681 | 32050 ft | 406 kts | 322° |
| 2026-05-05 17:25 | 39.05054 | 25.10154 | 32049 ft | 407 kts | 322° |
| 2026-05-05 17:25 | 39.09484 | 25.05622 | 32053 ft | 407 kts | 322° |
| 2026-05-05 17:26 | 39.13914 | 25.01081 | 32044 ft | 407 kts | 322° |
| 2026-05-05 17:26 | 39.18342 | 24.96535 | 32043 ft | 406 kts | 322° |
| 2026-05-05 17:27 | 39.22761 | 24.91992 | 32050 ft | 406 kts | 321° |
| 2026-05-05 17:27 | 39.27178 | 24.87442 | 32047 ft | 406 kts | 321° |
| 2026-05-05 17:28 | 39.31563 | 24.82918 | 32045 ft | 406 kts | 321° |
| 2026-05-05 17:28 | 39.35977 | 24.78356 | 32047 ft | 406 kts | 321° |
| 2026-05-05 17:29 | 39.40398 | 24.73780 | 32044 ft | 407 kts | 321° |
| 2026-05-05 17:29 | 39.44815 | 24.69199 | 32044 ft | 407 kts | 321° |
| 2026-05-05 17:30 | 39.49231 | 24.64613 | 32054 ft | 407 kts | 321° |
| 2026-05-05 17:30 | 39.53654 | 24.60012 | 32044 ft | 408 kts | 321° |
| 2026-05-05 17:31 | 39.58054 | 24.55425 | 32041 ft | 409 kts | 321° |
| 2026-05-05 17:31 | 39.62519 | 24.50765 | 32041 ft | 410 kts | 321° |
| 2026-05-05 17:32 | 39.66962 | 24.46119 | 32039 ft | 411 kts | 321° |
| 2026-05-05 17:32 | 39.71393 | 24.41478 | 32037 ft | 411 kts | 321° |
| 2026-05-05 17:33 | 39.75841 | 24.36810 | 32023 ft | 411 kts | 321° |
| 2026-05-05 17:33 | 39.80296 | 24.32128 | 32031 ft | 411 kts | 321° |
| 2026-05-05 17:34 | 39.84744 | 24.27445 | 32033 ft | 412 kts | 321° |
| 2026-05-05 17:34 | 39.89197 | 24.22748 | 32033 ft | 412 kts | 321° |
| 2026-05-05 17:35 | 39.92901 | 24.18836 | 32031 ft | 412 kts | 321° |
| 2026-05-05 17:35 | 39.97355 | 24.14124 | 32033 ft | 412 kts | 321° |
| 2026-05-05 17:36 | 40.01803 | 24.09409 | 32030 ft | 412 kts | 321° |
| 2026-05-05 17:36 | 40.06256 | 24.04681 | 32019 ft | 413 kts | 321° |
| 2026-05-05 17:37 | 40.10718 | 23.99936 | 32025 ft | 413 kts | 321° |
| 2026-05-05 17:37 | 40.15150 | 23.95214 | 32027 ft | 414 kts | 321° |
| 2026-05-05 17:38 | 40.19621 | 23.90443 | 32025 ft | 415 kts | 321° |
| 2026-05-05 17:38 | 40.24099 | 23.85655 | 32025 ft | 416 kts | 321° |
| 2026-05-05 17:39 | 40.28578 | 23.80858 | 32023 ft | 416 kts | 321° |
| 2026-05-05 17:39 | 40.33055 | 23.76054 | 32025 ft | 416 kts | 321° |
| 2026-05-05 17:40 | 40.37533 | 23.71242 | 32019 ft | 415 kts | 321° |
| 2026-05-05 17:40 | 40.41991 | 23.66441 | 32018 ft | 414 kts | 321° |
| 2026-05-05 17:41 | 40.46441 | 23.61641 | 32024 ft | 413 kts | 321° |
| 2026-05-05 17:41 | 40.50850 | 23.56876 | 32027 ft | 413 kts | 321° |
| 2026-05-05 17:42 | 40.55287 | 23.52074 | 32035 ft | 413 kts | 321° |
| 2026-05-05 17:42 | 40.59735 | 23.47251 | 32015 ft | 414 kts | 321° |
| 2026-05-05 17:43 | 40.64188 | 23.42414 | 31997 ft | 415 kts | 321° |
| 2026-05-05 17:43 | 40.68640 | 23.37570 | 32002 ft | 414 kts | 321° |
| 2026-05-05 17:44 | 40.73079 | 23.32730 | 32011 ft | 414 kts | 320° |
| 2026-05-05 17:44 | 40.77513 | 23.27886 | 32004 ft | 413 kts | 320° |
| 2026-05-05 17:45 | 40.81911 | 23.23075 | 32004 ft | 413 kts | 320° |
| 2026-05-05 17:45 | 40.86343 | 23.18218 | 32007 ft | 414 kts | 321° |
| 2026-05-05 17:46 | 40.90789 | 23.13335 | 31995 ft | 415 kts | 320° |
| 2026-05-05 17:46 | 40.95233 | 23.08447 | 31991 ft | 415 kts | 320° |
| 2026-05-05 17:47 | 40.99677 | 23.03548 | 31997 ft | 416 kts | 320° |
| 2026-05-05 17:47 | 41.04099 | 22.98667 | 32001 ft | 416 kts | 320° |
| 2026-05-05 17:48 | 41.08547 | 22.93746 | 31990 ft | 417 kts | 320° |
| 2026-05-05 17:48 | 41.13002 | 22.88809 | 31996 ft | 418 kts | 320° |
| 2026-05-05 17:49 | 41.17468 | 22.83851 | 31996 ft | 419 kts | 320° |
| 2026-05-05 17:49 | 41.21940 | 22.78878 | 31996 ft | 420 kts | 320° |
| 2026-05-05 17:50 | 41.26280 | 22.73694 | 31995 ft | 419 kts | 314° |
| 2026-05-05 17:50 | 41.30192 | 22.67953 | 32005 ft | 419 kts | 313° |
| 2026-05-05 17:51 | 41.34069 | 22.62172 | 32001 ft | 419 kts | 313° |
| 2026-05-05 17:51 | 41.37963 | 22.56406 | 32001 ft | 419 kts | 313° |
| 2026-05-05 17:52 | 41.41848 | 22.50684 | 32000 ft | 419 kts | 313° |
| 2026-05-05 17:52 | 41.45757 | 22.44930 | 31986 ft | 419 kts | 313° |
| 2026-05-05 17:53 | 41.49669 | 22.39162 | 31993 ft | 420 kts | 313° |
| 2026-05-05 17:53 | 41.53585 | 22.33374 | 31999 ft | 420 kts | 313° |
| 2026-05-05 17:54 | 41.57505 | 22.27569 | 31996 ft | 420 kts | 313° |
| 2026-05-05 17:54 | 41.61420 | 22.21759 | 31998 ft | 421 kts | 313° |
| 2026-05-05 17:55 | 41.65311 | 22.15975 | 31997 ft | 421 kts | 313° |
| 2026-05-05 17:55 | 41.69226 | 22.10142 | 31986 ft | 421 kts | 312° |
| 2026-05-05 17:56 | 41.73149 | 22.04287 | 31997 ft | 422 kts | 312° |
| 2026-05-05 17:56 | 41.77066 | 21.98428 | 31992 ft | 422 kts | 312° |
| 2026-05-05 17:57 | 41.80990 | 21.92547 | 31992 ft | 423 kts | 312° |
| 2026-05-05 17:57 | 41.84882 | 21.86703 | 31998 ft | 423 kts | 312° |
| 2026-05-05 17:58 | 41.88795 | 21.80814 | 31997 ft | 423 kts | 312° |
| 2026-05-05 17:58 | 41.92713 | 21.74908 | 31996 ft | 424 kts | 311° |
| 2026-05-05 17:59 | 41.96637 | 21.68980 | 31991 ft | 425 kts | 311° |
| 2026-05-05 17:59 | 42.00571 | 21.63025 | 31992 ft | 426 kts | 311° |
| 2026-05-05 18:00 | 42.04510 | 21.57049 | 31993 ft | 427 kts | 311° |
| 2026-05-05 18:00 | 42.08443 | 21.51072 | 32010 ft | 427 kts | 311° |
| 2026-05-05 18:01 | 42.12359 | 21.45107 | 32008 ft | 427 kts | 311° |
| 2026-05-05 18:01 | 42.16291 | 21.39104 | 32008 ft | 427 kts | 311° |
| 2026-05-05 18:02 | 42.20162 | 21.33024 | 32027 ft | 427 kts | 310° |
| 2026-05-05 18:02 | 42.23984 | 21.26937 | 32029 ft | 428 kts | 310° |
| 2026-05-05 18:03 | 42.27832 | 21.20805 | 32022 ft | 428 kts | 310° |
| 2026-05-05 18:03 | 42.31683 | 21.14670 | 32023 ft | 427 kts | 310° |
| 2026-05-05 18:04 | 42.35529 | 21.08537 | 32023 ft | 427 kts | 310° |
| 2026-05-05 18:04 | 42.39376 | 21.02388 | 32024 ft | 428 kts | 310° |
| 2026-05-05 18:05 | 42.43217 | 20.96237 | 32023 ft | 428 kts | 310° |
| 2026-05-05 18:05 | 42.47036 | 20.90109 | 32028 ft | 428 kts | 309° |
| 2026-05-05 18:06 | 42.50877 | 20.83932 | 32030 ft | 429 kts | 309° |
| 2026-05-05 18:06 | 42.54725 | 20.77731 | 32018 ft | 430 kts | 309° |
| 2026-05-05 18:07 | 42.58555 | 20.71546 | 32025 ft | 430 kts | 309° |
| 2026-05-05 18:07 | 42.62395 | 20.65331 | 32031 ft | 430 kts | 309° |
| 2026-05-05 18:08 | 42.66242 | 20.59093 | 32029 ft | 430 kts | 309° |
| 2026-05-05 18:08 | 42.70085 | 20.52847 | 32025 ft | 430 kts | 309° |
| 2026-05-05 18:09 | 42.73897 | 20.46639 | 32032 ft | 430 kts | 309° |
| 2026-05-05 18:09 | 42.77724 | 20.40391 | 32022 ft | 430 kts | 309° |
| 2026-05-05 18:10 | 42.81547 | 20.34140 | 32034 ft | 430 kts | 308° |
| 2026-05-05 18:10 | 42.85507 | 20.28021 | 32039 ft | 431 kts | 313° |
| 2026-05-05 18:11 | 42.89769 | 20.22263 | 32027 ft | 432 kts | 314° |
| 2026-05-05 18:11 | 42.94074 | 20.16525 | 32032 ft | 432 kts | 314° |
| 2026-05-05 18:12 | 42.98355 | 20.10743 | 32031 ft | 432 kts | 313° |
| 2026-05-05 18:12 | 43.02614 | 20.04933 | 32037 ft | 432 kts | 313° |
| 2026-05-05 18:13 | 43.06868 | 19.99105 | 32035 ft | 432 kts | 313° |
| 2026-05-05 18:13 | 43.11093 | 19.93301 | 32039 ft | 433 kts | 313° |
| 2026-05-05 18:14 | 43.15343 | 19.87451 | 32026 ft | 433 kts | 313° |
| 2026-05-05 18:14 | 43.19596 | 19.81588 | 32045 ft | 433 kts | 313° |
| 2026-05-05 18:15 | 43.23842 | 19.75721 | 32039 ft | 434 kts | 313° |
| 2026-05-05 18:15 | 43.28094 | 19.69834 | 32028 ft | 435 kts | 313° |
| 2026-05-05 18:16 | 43.32327 | 19.63960 | 32046 ft | 435 kts | 313° |
| 2026-05-05 18:16 | 43.36581 | 19.58044 | 32046 ft | 435 kts | 313° |
| 2026-05-05 18:17 | 43.40839 | 19.52112 | 32043 ft | 436 kts | 312° |
| 2026-05-05 18:17 | 43.45101 | 19.46159 | 32035 ft | 437 kts | 312° |
| 2026-05-05 18:18 | 43.49369 | 19.40187 | 32014 ft | 437 kts | 312° |
| 2026-05-05 18:18 | 43.53630 | 19.34212 | 32045 ft | 437 kts | 312° |
| 2026-05-05 18:19 | 43.57892 | 19.28221 | 32039 ft | 438 kts | 312° |
| 2026-05-05 18:19 | 43.62139 | 19.22240 | 32034 ft | 439 kts | 312° |
| 2026-05-05 18:20 | 43.66409 | 19.16214 | 32037 ft | 439 kts | 312° |
| 2026-05-05 18:20 | 43.70671 | 19.10184 | 32040 ft | 439 kts | 312° |
| 2026-05-05 18:21 | 43.74937 | 19.04137 | 32045 ft | 439 kts | 312° |
| 2026-05-05 18:21 | 43.79188 | 18.98099 | 32055 ft | 438 kts | 312° |
| 2026-05-05 18:22 | 43.83445 | 18.92037 | 32046 ft | 438 kts | 312° |
| 2026-05-05 18:22 | 43.87690 | 18.85979 | 32049 ft | 438 kts | 311° |
| 2026-05-05 18:23 | 43.91929 | 18.79918 | 32045 ft | 438 kts | 311° |
| 2026-05-05 18:23 | 43.96138 | 18.73886 | 32057 ft | 437 kts | 311° |
| 2026-05-05 18:24 | 44.00359 | 18.67823 | 32047 ft | 437 kts | 311° |
| 2026-05-05 18:24 | 44.03894 | 18.62737 | 32062 ft | 436 kts | 311° |
| 2026-05-05 18:25 | 44.08102 | 18.56668 | 32053 ft | 436 kts | 311° |
| 2026-05-05 18:25 | 44.12308 | 18.50589 | 32047 ft | 436 kts | 311° |
| 2026-05-05 18:26 | 44.16495 | 18.44526 | 32038 ft | 437 kts | 311° |
| 2026-05-05 18:26 | 44.20702 | 18.38419 | 32039 ft | 437 kts | 311° |
| 2026-05-05 18:27 | 44.24917 | 18.32286 | 32036 ft | 438 kts | 311° |
| 2026-05-05 18:27 | 44.29135 | 18.26138 | 32034 ft | 439 kts | 311° |
| 2026-05-05 18:28 | 44.35470 | 18.16877 | 32025 ft | 440 kts | 311° |
| 2026-05-05 18:28 | 44.39695 | 18.10681 | 32024 ft | 440 kts | 311° |
| 2026-05-05 18:29 | 44.43924 | 18.04468 | 32007 ft | 441 kts | 311° |
| 2026-05-05 18:29 | 44.48147 | 17.98249 | 32016 ft | 441 kts | 311° |
| 2026-05-05 18:30 | 44.52369 | 17.92017 | 32014 ft | 440 kts | 311° |
| 2026-05-05 18:30 | 44.56555 | 17.85827 | 32007 ft | 440 kts | 311° |
| 2026-05-05 18:31 | 44.60756 | 17.79598 | 31994 ft | 439 kts | 311° |
| 2026-05-05 18:31 | 44.64954 | 17.73358 | 31995 ft | 439 kts | 311° |
| 2026-05-05 18:32 | 44.69152 | 17.67106 | 31992 ft | 439 kts | 311° |
| 2026-05-05 18:32 | 44.73341 | 17.60852 | 31996 ft | 438 kts | 311° |
| 2026-05-05 18:33 | 44.77491 | 17.54644 | 32001 ft | 438 kts | 311° |
| 2026-05-05 18:33 | 44.81666 | 17.48384 | 32000 ft | 438 kts | 310° |
| 2026-05-05 18:34 | 44.85842 | 17.42108 | 31991 ft | 439 kts | 310° |
| 2026-05-05 18:34 | 44.90022 | 17.35810 | 31999 ft | 440 kts | 310° |
| 2026-05-05 18:35 | 44.94208 | 17.29491 | 31989 ft | 440 kts | 310° |
| 2026-05-05 18:35 | 44.98387 | 17.23166 | 31997 ft | 440 kts | 310° |
| 2026-05-05 18:36 | 45.02569 | 17.16823 | 31984 ft | 440 kts | 310° |
| 2026-05-05 18:36 | 45.06740 | 17.10537 | 31981 ft | 441 kts | 312° |
| 2026-05-05 18:37 | 45.11204 | 17.04568 | 31992 ft | 442 kts | 315° |
| 2026-05-05 18:37 | 45.15771 | 16.98714 | 31988 ft | 443 kts | 315° |
| 2026-05-05 18:38 | 45.20331 | 16.92818 | 31988 ft | 443 kts | 315° |
| 2026-05-05 18:38 | 45.24863 | 16.86889 | 31986 ft | 443 kts | 314° |
| 2026-05-05 18:39 | 45.29377 | 16.80948 | 31989 ft | 443 kts | 314° |
| 2026-05-05 18:39 | 45.33895 | 16.74985 | 31998 ft | 443 kts | 314° |
| 2026-05-05 18:40 | 45.38384 | 16.69047 | 31987 ft | 444 kts | 314° |
| 2026-05-05 18:40 | 45.42904 | 16.63056 | 31982 ft | 444 kts | 314° |
| 2026-05-05 18:41 | 45.47427 | 16.57049 | 31983 ft | 445 kts | 314° |
| 2026-05-05 18:41 | 45.51952 | 16.51024 | 31983 ft | 445 kts | 314° |
| 2026-05-05 18:42 | 45.56479 | 16.44982 | 31982 ft | 446 kts | 314° |
| 2026-05-05 18:42 | 45.61013 | 16.38918 | 31983 ft | 446 kts | 314° |
| 2026-05-05 18:43 | 45.65541 | 16.32847 | 31976 ft | 447 kts | 314° |
| 2026-05-05 18:43 | 45.70074 | 16.26756 | 31979 ft | 447 kts | 314° |
| 2026-05-05 18:44 | 45.74580 | 16.20687 | 31966 ft | 448 kts | 314° |
| 2026-05-05 18:44 | 45.79115 | 16.14563 | 31967 ft | 448 kts | 314° |
| 2026-05-05 18:45 | 45.83645 | 16.08433 | 31975 ft | 448 kts | 314° |
| 2026-05-05 18:45 | 45.88183 | 16.02277 | 31969 ft | 448 kts | 314° |
| 2026-05-05 18:46 | 45.92716 | 15.96114 | 31974 ft | 448 kts | 313° |
| 2026-05-05 18:46 | 45.97243 | 15.89944 | 31967 ft | 449 kts | 313° |
| 2026-05-05 18:47 | 46.01768 | 15.83761 | 31967 ft | 449 kts | 313° |
| 2026-05-05 18:47 | 46.06293 | 15.77564 | 31967 ft | 449 kts | 313° |
| 2026-05-05 18:48 | 46.10817 | 15.71352 | 31971 ft | 449 kts | 313° |
| 2026-05-05 18:48 | 46.15308 | 15.65174 | 31964 ft | 449 kts | 313° |
| 2026-05-05 18:49 | 46.19933 | 15.59097 | 31963 ft | 451 kts | 316° |
| 2026-05-05 18:49 | 46.24765 | 15.53314 | 31952 ft | 451 kts | 317° |
| 2026-05-05 18:50 | 46.29614 | 15.47557 | 31949 ft | 451 kts | 317° |
| 2026-05-05 18:50 | 46.34436 | 15.41761 | 31947 ft | 450 kts | 317° |
| 2026-05-05 18:51 | 46.39248 | 15.35926 | 31944 ft | 452 kts | 317° |
| 2026-05-05 18:51 | 46.44064 | 15.30059 | 31929 ft | 453 kts | 316° |
| 2026-05-05 18:52 | 46.48884 | 15.24173 | 31934 ft | 454 kts | 316° |
| 2026-05-05 18:52 | 46.53715 | 15.18262 | 31928 ft | 454 kts | 316° |
| 2026-05-05 18:53 | 46.58551 | 15.12331 | 31934 ft | 455 kts | 316° |
| 2026-05-05 18:53 | 46.63391 | 15.06381 | 31944 ft | 456 kts | 316° |
| 2026-05-05 18:54 | 46.68240 | 15.00404 | 31933 ft | 456 kts | 316° |
| 2026-05-05 18:54 | 46.73056 | 14.94457 | 31945 ft | 457 kts | 316° |
| 2026-05-05 18:55 | 46.77912 | 14.88443 | 31918 ft | 458 kts | 316° |
| 2026-05-05 18:55 | 46.82760 | 14.82425 | 31916 ft | 458 kts | 316° |
| 2026-05-05 18:56 | 46.87609 | 14.76390 | 31914 ft | 457 kts | 316° |
| 2026-05-05 18:56 | 46.92444 | 14.70358 | 31926 ft | 457 kts | 316° |
| 2026-05-05 18:57 | 46.97276 | 14.64315 | 31922 ft | 457 kts | 316° |
| 2026-05-05 18:57 | 47.02108 | 14.58258 | 31907 ft | 457 kts | 316° |
| 2026-05-05 18:58 | 47.06947 | 14.52174 | 31925 ft | 458 kts | 316° |
| 2026-05-05 18:58 | 47.11753 | 14.46120 | 31897 ft | 459 kts | 316° |
| 2026-05-05 18:59 | 47.16599 | 14.39998 | 31887 ft | 460 kts | 316° |
| 2026-05-05 18:59 | 47.21443 | 14.33865 | 31885 ft | 460 kts | 316° |
| 2026-05-05 19:00 | 47.26288 | 14.27716 | 31885 ft | 459 kts | 316° |
| 2026-05-05 19:00 | 47.31124 | 14.21562 | 31897 ft | 459 kts | 315° |
| 2026-05-05 19:01 | 47.35948 | 14.15407 | 31874 ft | 458 kts | 315° |
| 2026-05-05 19:01 | 47.40770 | 14.09241 | 31857 ft | 458 kts | 315° |
| 2026-05-05 19:02 | 47.45586 | 14.03065 | 31842 ft | 458 kts | 315° |
| 2026-05-05 19:02 | 47.50396 | 13.96882 | 31845 ft | 458 kts | 315° |
| 2026-05-05 19:03 | 47.55208 | 13.90681 | 31831 ft | 458 kts | 315° |
| 2026-05-05 19:03 | 47.60016 | 13.84469 | 31844 ft | 459 kts | 315° |
| 2026-05-05 19:04 | 47.64801 | 13.78270 | 31837 ft | 460 kts | 315° |
| 2026-05-05 19:04 | 47.69621 | 13.72011 | 31818 ft | 461 kts | 315° |
| 2026-05-05 19:05 | 47.74445 | 13.65731 | 31821 ft | 461 kts | 315° |
| 2026-05-05 19:05 | 47.79266 | 13.59439 | 31838 ft | 461 kts | 314° |
| 2026-05-05 19:06 | 47.84101 | 13.53112 | 31819 ft | 463 kts | 314° |
| 2026-05-05 19:06 | 47.88948 | 13.46752 | 31818 ft | 464 kts | 314° |
| 2026-05-05 19:07 | 47.92974 | 13.41458 | 31820 ft | 464 kts | 314° |
| 2026-05-05 19:07 | 47.98607 | 13.34031 | 31811 ft | 465 kts | 314° |
| 2026-05-05 19:08 | 48.03448 | 13.27629 | 31842 ft | 465 kts | 314° |
| 2026-05-05 19:08 | 48.08296 | 13.21202 | 31824 ft | 466 kts | 314° |
| 2026-05-05 19:09 | 48.13148 | 13.14751 | 31821 ft | 467 kts | 314° |
| 2026-05-05 19:09 | 48.18002 | 13.08282 | 31816 ft | 467 kts | 314° |
| 2026-05-05 19:10 | 48.22856 | 13.01797 | 31809 ft | 467 kts | 313° |
| 2026-05-05 19:10 | 48.26988 | 12.96525 | 31814 ft | 469 kts | 316° |
| 2026-05-05 19:11 | 48.32928 | 12.89372 | 31821 ft | 471 kts | 316° |
| 2026-05-05 19:11 | 48.37211 | 12.84206 | 31809 ft | 472 kts | 316° |
| 2026-05-05 19:12 | 48.42312 | 12.77980 | 31815 ft | 472 kts | 316° |
| 2026-05-05 19:12 | 48.47375 | 12.71750 | 31809 ft | 473 kts | 316° |
| 2026-05-05 19:13 | 48.52480 | 12.65443 | 31814 ft | 474 kts | 316° |
| 2026-05-05 19:13 | 48.57582 | 12.59123 | 31809 ft | 474 kts | 316° |
| 2026-05-05 19:14 | 48.62681 | 12.52793 | 31813 ft | 474 kts | 316° |
| 2026-05-05 19:14 | 48.67778 | 12.46449 | 31812 ft | 474 kts | 316° |
| 2026-05-05 19:15 | 48.72871 | 12.40093 | 31819 ft | 474 kts | 316° |
| 2026-05-05 19:15 | 48.77958 | 12.33727 | 31810 ft | 474 kts | 316° |
| 2026-05-05 19:16 | 48.83044 | 12.27344 | 31820 ft | 475 kts | 316° |
| 2026-05-05 19:16 | 48.88142 | 12.20928 | 31820 ft | 476 kts | 316° |
| 2026-05-05 19:17 | 48.93248 | 12.14485 | 31820 ft | 477 kts | 316° |
| 2026-05-05 19:17 | 48.98329 | 12.08057 | 31815 ft | 478 kts | 316° |
| 2026-05-05 19:18 | 49.03443 | 12.01569 | 31817 ft | 479 kts | 316° |
| 2026-05-05 19:18 | 49.08561 | 11.95058 | 31832 ft | 480 kts | 316° |
| 2026-05-05 19:19 | 49.13702 | 11.88498 | 31816 ft | 481 kts | 316° |
| 2026-05-05 19:19 | 49.18840 | 11.81925 | 31812 ft | 482 kts | 316° |
| 2026-05-05 19:20 | 49.23983 | 11.75328 | 31824 ft | 483 kts | 316° |
| 2026-05-05 19:20 | 49.29133 | 11.68702 | 31814 ft | 484 kts | 316° |
| 2026-05-05 19:21 | 49.34281 | 11.62059 | 31850 ft | 484 kts | 317° |
| 2026-05-05 19:21 | 49.39435 | 11.55390 | 31818 ft | 484 kts | 317° |
| 2026-05-05 19:22 | 49.44593 | 11.48698 | 31820 ft | 485 kts | 317° |
| 2026-05-05 19:22 | 49.49711 | 11.42039 | 31813 ft | 485 kts | 317° |
| 2026-05-05 19:23 | 49.54857 | 11.35323 | 31822 ft | 485 kts | 317° |
| 2026-05-05 19:23 | 49.60004 | 11.28587 | 31845 ft | 485 kts | 317° |
| 2026-05-05 19:24 | 49.65152 | 11.21829 | 31825 ft | 485 kts | 317° |
| 2026-05-05 19:24 | 49.70292 | 11.15065 | 31818 ft | 485 kts | 317° |
| 2026-05-05 19:25 | 49.75427 | 11.08286 | 31822 ft | 485 kts | 317° |
| 2026-05-05 19:25 | 49.80515 | 11.01549 | 31822 ft | 484 kts | 317° |
| 2026-05-05 19:26 | 49.85631 | 10.94757 | 31813 ft | 484 kts | 317° |
| 2026-05-05 19:26 | 49.90742 | 10.87951 | 31824 ft | 484 kts | 318° |
| 2026-05-05 19:27 | 49.95858 | 10.81118 | 31809 ft | 484 kts | 318° |
| 2026-05-05 19:27 | 50.00960 | 10.74285 | 31812 ft | 485 kts | 318° |
| 2026-05-05 19:28 | 50.06070 | 10.67422 | 31807 ft | 485 kts | 318° |
| 2026-05-05 19:28 | 50.11181 | 10.60536 | 31806 ft | 485 kts | 318° |
| 2026-05-05 19:29 | 50.16285 | 10.53638 | 31813 ft | 486 kts | 318° |
| 2026-05-05 19:29 | 50.21394 | 10.46716 | 31800 ft | 487 kts | 318° |
| 2026-05-05 19:30 | 50.26506 | 10.39767 | 31804 ft | 487 kts | 318° |
| 2026-05-05 19:30 | 50.31588 | 10.32840 | 31804 ft | 488 kts | 318° |
| 2026-05-05 19:31 | 50.36613 | 10.25692 | 31807 ft | 487 kts | 312° |
| 2026-05-05 19:31 | 50.41091 | 10.17724 | 31815 ft | 487 kts | 309° |
| 2026-05-05 19:32 | 50.45480 | 10.09601 | 31813 ft | 488 kts | 309° |
| 2026-05-05 19:32 | 50.49920 | 10.01516 | 31799 ft | 488 kts | 309° |
| 2026-05-05 19:33 | 50.54349 | 9.93526 | 31803 ft | 488 kts | 309° |
| 2026-05-05 19:33 | 50.58800 | 9.85484 | 31803 ft | 487 kts | 309° |
| 2026-05-05 19:34 | 50.63249 | 9.77413 | 31809 ft | 487 kts | 309° |
| 2026-05-05 19:35 | 50.69906 | 9.65278 | 31798 ft | 488 kts | 309° |
| 2026-05-05 19:35 | 50.74330 | 9.57154 | 31803 ft | 487 kts | 309° |
| 2026-05-05 19:36 | 50.78623 | 9.48961 | 31795 ft | 487 kts | 308° |
| 2026-05-05 19:36 | 50.82913 | 9.40669 | 31815 ft | 487 kts | 308° |
| 2026-05-05 19:37 | 50.87215 | 9.32364 | 31801 ft | 487 kts | 308° |
| 2026-05-05 19:37 | 50.91520 | 9.24052 | 31801 ft | 487 kts | 308° |
| 2026-05-05 19:38 | 50.95820 | 9.15729 | 31802 ft | 488 kts | 308° |
| 2026-05-05 19:38 | 51.00085 | 9.07446 | 31800 ft | 488 kts | 307° |
| 2026-05-05 19:39 | 51.04372 | 8.99089 | 31796 ft | 488 kts | 307° |
| 2026-05-05 19:39 | 51.08648 | 8.90727 | 31799 ft | 487 kts | 307° |
| 2026-05-05 19:40 | 51.12923 | 8.82343 | 31805 ft | 487 kts | 307° |
| 2026-05-05 19:40 | 51.17181 | 8.73952 | 31806 ft | 487 kts | 307° |
| 2026-05-05 19:41 | 51.21439 | 8.65523 | 31808 ft | 487 kts | 307° |
| 2026-05-05 19:41 | 51.25683 | 8.57095 | 31827 ft | 487 kts | 307° |
| 2026-05-05 19:42 | 51.29901 | 8.48697 | 31810 ft | 487 kts | 306° |
| 2026-05-05 19:42 | 51.34260 | 8.40389 | 31811 ft | 488 kts | 312° |
| 2026-05-05 19:43 | 51.39109 | 8.32777 | 31812 ft | 489 kts | 314° |
| 2026-05-05 19:43 | 51.44043 | 8.25265 | 31816 ft | 489 kts | 314° |
| 2026-05-05 19:44 | 51.48930 | 8.17679 | 31840 ft | 488 kts | 314° |
| 2026-05-05 19:44 | 51.53776 | 8.10033 | 31828 ft | 488 kts | 313° |
| 2026-05-05 19:45 | 51.58598 | 8.02376 | 31827 ft | 487 kts | 313° |
| 2026-05-05 19:45 | 51.63407 | 7.94722 | 31826 ft | 486 kts | 313° |
| 2026-05-05 19:46 | 51.68174 | 7.87115 | 31831 ft | 485 kts | 313° |
| 2026-05-05 19:46 | 51.72950 | 7.79471 | 31832 ft | 484 kts | 312° |
| 2026-05-05 19:47 | 51.77720 | 7.71813 | 31840 ft | 483 kts | 313° |
| 2026-05-05 19:47 | 51.82485 | 7.64136 | 31846 ft | 482 kts | 312° |
| 2026-05-05 19:48 | 51.87237 | 7.56457 | 31841 ft | 482 kts | 312° |
| 2026-05-05 19:48 | 51.91967 | 7.48791 | 31844 ft | 481 kts | 312° |
| 2026-05-05 19:49 | 51.96656 | 7.41166 | 31849 ft | 480 kts | 312° |
| 2026-05-05 19:49 | 52.01365 | 7.33485 | 31859 ft | 480 kts | 312° |
| 2026-05-05 19:50 | 52.06068 | 7.25787 | 31851 ft | 480 kts | 312° |
| 2026-05-05 19:50 | 52.10765 | 7.18078 | 31602 ft | 483 kts | 311° |
| 2026-05-05 19:50 | 52.13132 | 7.14180 | 30891 ft | 484 kts | 312° |
| 2026-05-05 19:51 | 52.15473 | 7.10263 | 30167 ft | 481 kts | 309° |
| 2026-05-05 19:51 | 52.17612 | 7.06087 | 29373 ft | 478 kts | 305° |
| 2026-05-05 19:51 | 52.19637 | 7.01784 | 28499 ft | 477 kts | 304° |
| 2026-05-05 19:51 | 52.21661 | 6.97499 | 27646 ft | 476 kts | 305° |
| 2026-05-05 19:52 | 52.23721 | 6.93271 | 26770 ft | 476 kts | 306° |
| 2026-05-05 19:52 | 52.25817 | 6.89089 | 25859 ft | 477 kts | 307° |
| 2026-05-05 19:52 | 52.27927 | 6.84907 | 25014 ft | 476 kts | 307° |
| 2026-05-05 19:52 | 52.29989 | 6.80803 | 24378 ft | 470 kts | 307° |
| 2026-05-05 19:53 | 52.32041 | 6.76687 | 23719 ft | 465 kts | 307° |
| 2026-05-05 19:53 | 52.34071 | 6.72597 | 23004 ft | 460 kts | 306° |
| 2026-05-05 19:53 | 52.36078 | 6.68550 | 22291 ft | 455 kts | 307° |
| 2026-05-05 19:53 | 52.38060 | 6.64552 | 21632 ft | 448 kts | 307° |
| 2026-05-05 19:54 | 52.40011 | 6.60612 | 20970 ft | 443 kts | 307° |
| 2026-05-05 19:54 | 52.41940 | 6.56710 | 20317 ft | 438 kts | 307° |
| 2026-05-05 19:54 | 52.43844 | 6.52843 | 19681 ft | 433 kts | 307° |
| 2026-05-05 19:54 | 52.45698 | 6.48981 | 19044 ft | 428 kts | 303° |
| 2026-05-05 19:55 | 52.46921 | 6.44593 | 18401 ft | 422 kts | 283° |
| 2026-05-05 19:55 | 52.47347 | 6.39856 | 17693 ft | 419 kts | 274° |
| 2026-05-05 19:55 | 52.47558 | 6.35120 | 17010 ft | 415 kts | 273° |
| 2026-05-05 19:55 | 52.47744 | 6.30422 | 16357 ft | 410 kts | 273° |
| 2026-05-05 19:56 | 52.47937 | 6.25776 | 15729 ft | 406 kts | 274° |
| 2026-05-05 19:56 | 52.48143 | 6.21179 | 15112 ft | 402 kts | 274° |
| 2026-05-05 19:56 | 52.48359 | 6.16629 | 14522 ft | 399 kts | 275° |
| 2026-05-05 19:56 | 52.48579 | 6.12108 | 13912 ft | 395 kts | 275° |
| 2026-05-05 19:57 | 52.48795 | 6.07654 | 13250 ft | 386 kts | 275° |
| 2026-05-05 19:57 | 52.48933 | 6.04779 | 12822 ft | 377 kts | 275° |
| 2026-05-05 19:57 | 52.49133 | 6.00558 | 12227 ft | 367 kts | 274° |
| 2026-05-05 19:57 | 52.49390 | 5.95112 | 11497 ft | 355 kts | 274° |
| 2026-05-05 19:58 | 52.49578 | 5.91080 | 11152 ft | 353 kts | 274° |
| 2026-05-05 19:58 | 52.49767 | 5.87001 | 11031 ft | 366 kts | 274° |
| 2026-05-05 19:58 | 52.49960 | 5.82814 | 10859 ft | 364 kts | 274° |
| 2026-05-05 19:58 | 52.50086 | 5.80044 | 10744 ft | 355 kts | 274° |
| 2026-05-05 19:59 | 52.49995 | 5.76085 | 10573 ft | 343 kts | 257° |
| 2026-05-05 19:59 | 52.49126 | 5.72585 | 10460 ft | 331 kts | 241° |
| 2026-05-05 19:59 | 52.47963 | 5.69397 | 10338 ft | 319 kts | 238° |
| 2026-05-05 19:59 | 52.46801 | 5.66368 | 10263 ft | 307 kts | 238° |
| 2026-05-05 20:00 | 52.45678 | 5.63486 | 10205 ft | 296 kts | 238° |
| 2026-05-05 20:00 | 52.44599 | 5.60701 | 10186 ft | 283 kts | 239° |
| 2026-05-05 20:00 | 52.43566 | 5.58009 | 10173 ft | 275 kts | 238° |
| 2026-05-05 20:00 | 52.42550 | 5.55417 | 10162 ft | 269 kts | 238° |
| 2026-05-05 20:01 | 52.41529 | 5.52822 | 9931 ft | 272 kts | 237° |
| 2026-05-05 20:01 | 52.40504 | 5.50216 | 9603 ft | 273 kts | 237° |
| 2026-05-05 20:01 | 52.39477 | 5.47609 | 9248 ft | 274 kts | 237° |
| 2026-05-05 20:01 | 52.38437 | 5.44982 | 8850 ft | 276 kts | 237° |
| 2026-05-05 20:02 | 52.37383 | 5.42356 | 8567 ft | 275 kts | 237° |
| 2026-05-05 20:02 | 52.36334 | 5.39756 | 8297 ft | 273 kts | 237° |
| 2026-05-05 20:02 | 52.35293 | 5.37168 | 8006 ft | 272 kts | 238° |
| 2026-05-05 20:02 | 52.34248 | 5.34589 | 7713 ft | 271 kts | 237° |
| 2026-05-05 20:03 | 52.33207 | 5.32028 | 7436 ft | 270 kts | 238° |
| 2026-05-05 20:03 | 52.32162 | 5.29470 | 7170 ft | 270 kts | 237° |
| 2026-05-05 20:03 | 52.31125 | 5.26926 | 6960 ft | 268 kts | 237° |
| 2026-05-05 20:03 | 52.30092 | 5.24395 | 6770 ft | 267 kts | 237° |
| 2026-05-05 20:04 | 52.29065 | 5.21867 | 6572 ft | 267 kts | 238° |
| 2026-05-05 20:04 | 52.28029 | 5.19335 | 6382 ft | 268 kts | 238° |
| 2026-05-05 20:04 | 52.26989 | 5.16806 | 6176 ft | 269 kts | 237° |
| 2026-05-05 20:04 | 52.25962 | 5.14309 | 5991 ft | 269 kts | 237° |
| 2026-05-05 20:05 | 52.24919 | 5.11766 | 5787 ft | 269 kts | 237° |
| 2026-05-05 20:05 | 52.23879 | 5.09231 | 5591 ft | 269 kts | 237° |
| 2026-05-05 20:05 | 52.22837 | 5.06696 | 5403 ft | 269 kts | 238° |
| 2026-05-05 20:05 | 52.21796 | 5.04165 | 5245 ft | 269 kts | 238° |
| 2026-05-05 20:06 | 52.20738 | 5.01613 | 5059 ft | 273 kts | 237° |
| 2026-05-05 20:06 | 52.19676 | 4.99046 | 4891 ft | 272 kts | 237° |
| 2026-05-05 20:06 | 52.18618 | 4.96481 | 4726 ft | 271 kts | 237° |
| 2026-05-05 20:06 | 52.17576 | 4.93941 | 4548 ft | 269 kts | 238° |
| 2026-05-05 20:07 | 52.16552 | 4.91464 | 4403 ft | 266 kts | 237° |
| 2026-05-05 20:07 | 52.15524 | 4.88958 | 4243 ft | 267 kts | 237° |
| 2026-05-05 20:07 | 52.14489 | 4.86432 | 4115 ft | 269 kts | 237° |
| 2026-05-05 20:07 | 52.13448 | 4.83878 | 3992 ft | 272 kts | 237° |
| 2026-05-05 20:08 | 52.12401 | 4.81307 | 3880 ft | 272 kts | 237° |
| 2026-05-05 20:08 | 52.11365 | 4.78756 | 3744 ft | 269 kts | 237° |
| 2026-05-05 20:08 | 52.10336 | 4.76223 | 3661 ft | 267 kts | 237° |
| 2026-05-05 20:08 | 52.09316 | 4.73715 | 3583 ft | 266 kts | 237° |
| 2026-05-05 20:09 | 52.08293 | 4.71204 | 3540 ft | 266 kts | 237° |
| 2026-05-05 20:09 | 52.07523 | 4.68500 | 3454 ft | 263 kts | 262° |
| 2026-05-05 20:09 | 52.07620 | 4.65628 | 3439 ft | 251 kts | 292° |
| 2026-05-05 20:09 | 52.08325 | 4.63150 | 3375 ft | 233 kts | 301° |
| 2026-05-05 20:10 | 52.09074 | 4.60886 | 3251 ft | 221 kts | 302° |
| 2026-05-05 20:10 | 52.09770 | 4.58781 | 3137 ft | 208 kts | 302° |
| 2026-05-05 20:10 | 52.10642 | 4.57092 | 3098 ft | 187 kts | 335° |
| 2026-05-05 20:10 | 52.11818 | 4.56217 | 3121 ft | 189 kts | 342° |
| 2026-05-05 20:11 | 52.13053 | 4.55389 | 3028 ft | 194 kts | 342° |
| 2026-05-05 20:11 | 52.14289 | 4.54558 | 2933 ft | 195 kts | 342° |
| 2026-05-05 20:11 | 52.15541 | 4.53731 | 2844 ft | 193 kts | 342° |
| 2026-05-05 20:11 | 52.16778 | 4.52903 | 2749 ft | 192 kts | 342° |
| 2026-05-05 20:12 | 52.18010 | 4.52090 | 2657 ft | 190 kts | 342° |
| 2026-05-05 20:12 | 52.19258 | 4.51506 | 2567 ft | 183 kts | 6° |
| 2026-05-05 20:12 | 52.20337 | 4.52356 | 2534 ft | 175 kts | 51° |
| 2026-05-05 20:12 | 52.21044 | 4.53987 | 2416 ft | 176 kts | 48° |
| 2026-05-05 20:13 | 52.21838 | 4.55494 | 2287 ft | 172 kts | 53° |
| 2026-05-05 20:13 | 52.22473 | 4.57091 | 2188 ft | 162 kts | 56° |
| 2026-05-05 20:13 | 52.23050 | 4.58607 | 2099 ft | 159 kts | 56° |
| 2026-05-05 20:13 | 52.23622 | 4.60097 | 1951 ft | 150 kts | 56° |
| 2026-05-05 20:14 | 52.24157 | 4.61485 | 1787 ft | 142 kts | 55° |
| 2026-05-05 20:14 | 52.24663 | 4.62796 | 1600 ft | 129 kts | 55° |
| 2026-05-05 20:14 | 52.25139 | 4.64025 | 1412 ft | 127 kts | 54° |
| 2026-05-05 20:14 | 52.25604 | 4.65228 | 1236 ft | 122 kts | 54° |
| 2026-05-05 20:15 | 52.26055 | 4.66394 | 1063 ft | 122 kts | 54° |
| 2026-05-05 20:15 | 52.26508 | 4.67563 | 898 ft | 122 kts | 53° |
| 2026-05-05 20:15 | 52.26983 | 4.68750 | 699 ft | 131 kts | 54° |
| 2026-05-05 20:15 | 52.27476 | 4.70023 | 592 ft | 134 kts | 54° |
| 2026-05-05 20:16 | 52.27961 | 4.71301 | 411 ft | 130 kts | 53° |
| 2026-05-05 20:16 | 52.28454 | 4.72541 | 226 ft | 130 kts | 55° |
| 2026-05-05 20:16 | 52.28928 | 4.73770 | 35 ft | 129 kts | 56° |
| 2026-05-05 20:16 | 52.29358 | 4.74875 | 16 ft | 101 kts | 61° |
| 2026-05-05 20:17 | 52.29653 | 4.75650 | 16 ft | 59 kts | 58° |
| 2026-05-05 20:17 | 52.29816 | 4.76074 | 10 ft | 38 kts | 56° |
| 2026-05-05 20:17 | 52.29949 | 4.76411 | 13 ft | 32 kts | 51° |
| 2026-05-05 20:17 | 52.30114 | 4.76610 | 17 ft | 26 kts | 27° |
| 2026-05-05 20:18 | 52.30205 | 4.76690 | 15 ft | 3 kts | 28° |
| 2026-05-05 20:18 | 52.30228 | 4.76710 | 13 ft | 5 kts | 28° |
| 2026-05-05 20:18 | 52.30270 | 4.76746 | 11 ft | 8 kts | 27° |
| 2026-05-05 20:18 | 52.30314 | 4.76812 | 10 ft | 9 kts | 67° |
| 2026-05-05 20:19 | 52.30343 | 4.76901 | 10 ft | 9 kts | 59° |
| 2026-05-05 20:19 | 52.30385 | 4.77010 | 9 ft | 14 kts | 57° |
| 2026-05-05 20:19 | 52.30443 | 4.77161 | 10 ft | 16 kts | 58° |
| 2026-05-05 20:19 | 52.30504 | 4.77315 | 10 ft | 16 kts | 53° |
| 2026-05-05 20:20 | 52.30586 | 4.77311 | 8 ft | 13 kts | 319° |
| 2026-05-05 20:20 | 52.30666 | 4.77277 | 6 ft | 13 kts | 0° |
| 2026-05-05 20:20 | 52.30709 | 4.77276 | 6 ft | 2 kts | 359° |
| 2026-05-05 20:20 | 52.30710 | 4.77276 | 6 ft | 0 kts | 359° |